Time;durP1;ratioP1;P1;durP2;ratioP2;P2;SDS_P1;SDS_P2;PMS_P1;PMS_P2;Temp;Humidity;BMP_temperature;BMP_pressure;BME280_temperature;BME280_humidity;BME280_pressure;Samples;Min_cycle;Max_cycle;Signal;HPM_P1;HPM_P2
2022/12/14 00:00:15;;;;;;;50.15;21.92;;;0.40;98.40;;;;;;5120751;28;20078;-72
2022/12/14 00:02:41;;;;;;;48.58;20.60;;;0.30;98.20;;;;;;5102681;28;20050;-72
2022/12/14 00:05:07;;;;;;;50.60;21.52;;;0.20;98.30;;;;;;5102863;28;20047;-71
2022/12/14 00:07:32;;;;;;;50.88;21.05;;;0.20;98.30;;;;;;5120797;28;20032;-72
2022/12/14 00:09:58;;;;;;;52.80;21.70;;;0.10;98.30;;;;;;5085845;28;20451;-72
2022/12/14 00:12:24;;;;;;;53.85;21.98;;;0.10;98.30;;;;;;5120309;28;20031;-72
2022/12/14 00:14:49;;;;;;;53.65;23.15;;;0.10;98.30;;;;;;5102413;28;20540;-72
2022/12/14 00:17:15;;;;;;;53.55;22.33;;;0.10;98.30;;;;;;5085573;28;20046;-72
2022/12/14 00:19:40;;;;;;;47.67;21.15;;;0.00;98.10;;;;;;5120775;28;20051;-72
2022/12/14 00:22:06;;;;;;;50.40;21.30;;;-0.20;98.10;;;;;;5102541;28;20047;-72
2022/12/14 00:24:32;;;;;;;51.75;22.33;;;-0.30;98.20;;;;;;5120304;28;20565;-72
2022/12/14 00:26:57;;;;;;;53.15;20.83;;;-0.40;98.40;;;;;;5120313;28;20047;-72
2022/12/14 00:29:23;;;;;;;52.22;20.52;;;-0.50;98.40;;;;;;5120289;28;20043;-72
2022/12/14 00:31:49;;;;;;;52.08;21.10;;;-0.50;98.40;;;;;;5102485;28;20067;-72
2022/12/14 00:34:15;;;;;;;45.92;20.35;;;-0.50;98.50;;;;;;5120146;28;20043;-72
2022/12/14 00:36:41;;;;;;;51.40;20.52;;;-0.50;98.50;;;;;;5102303;28;20046;-72
2022/12/14 00:39:06;;;;;;;49.75;21.50;;;-0.50;98.40;;;;;;5101729;28;20044;-72
2022/12/14 00:41:32;;;;;;;50.55;20.75;;;-0.50;98.40;;;;;;5119534;28;20043;-72
2022/12/14 00:43:58;;;;;;;48.85;19.98;;;-0.50;98.50;;;;;;5119884;28;20043;-72
2022/12/14 00:46:23;;;;;;;44.50;18.63;;;-0.40;98.50;;;;;;5120045;28;20078;-71
2022/12/14 00:48:49;;;;;;;52.55;21.65;;;-0.40;98.30;;;;;;5118766;28;20092;-72
2022/12/14 00:51:15;;;;;;;45.47;20.30;;;-0.40;98.20;;;;;;5119953;28;20039;-72
2022/12/14 00:53:42;;;;;;;50.95;20.75;;;-0.60;98.00;;;;;;5119974;28;20035;-72
2022/12/14 00:56:09;;;;;;;47.40;20.40;;;-0.60;98.10;;;;;;5119684;28;20421;-72
2022/12/14 00:58:34;;;;;;;52.00;19.70;;;-0.50;98.20;;;;;;5119953;28;20328;-72
2022/12/14 01:01:06;;;;;;;45.60;19.67;;;-0.50;98.20;;;;;;5084532;28;20126;-72
2022/12/14 01:03:32;;;;;;;49.65;19.70;;;-0.50;98.20;;;;;;5101457;28;20056;-72
2022/12/14 01:05:58;;;;;;;50.95;20.27;;;-0.50;97.90;;;;;;5119780;28;20047;-72
2022/12/14 01:08:24;;;;;;;50.88;20.63;;;-0.60;97.90;;;;;;5101330;28;20040;-72
2022/12/14 01:10:51;;;;;;;52.42;20.40;;;-0.50;98.00;;;;;;5119563;28;20122;-72
2022/12/14 01:13:17;;;;;;;52.83;20.45;;;-0.60;97.90;;;;;;5100910;28;20376;-72
2022/12/14 01:15:42;;;;;;;50.35;20.85;;;-0.70;97.70;;;;;;5119412;28;20123;-72
2022/12/14 01:18:08;;;;;;;46.03;19.75;;;-0.80;97.80;;;;;;5101253;28;20085;-72
2022/12/14 01:20:34;;;;;;;46.10;18.77;;;-0.80;97.70;;;;;;5119115;28;20040;-72
2022/12/14 01:22:59;;;;;;;46.67;18.95;;;-0.80;97.70;;;;;;5119037;28;20047;-72
2022/12/14 01:25:25;;;;;;;46.10;19.55;;;-0.90;97.60;;;;;;5119267;28;20039;-72
2022/12/14 01:27:51;;;;;;;48.90;19.70;;;-1.10;97.50;;;;;;5119388;28;20040;-72
2022/12/14 01:30:18;;;;;;;45.17;19.13;;;-1.20;97.80;;;;;;5101269;28;20352;-72
2022/12/14 01:32:44;;;;;;;47.97;18.83;;;-1.30;97.90;;;;;;5119134;28;20100;-72
2022/12/14 01:35:09;;;;;;;48.55;20.77;;;-1.40;97.80;;;;;;5100905;28;20031;-73
2022/12/14 01:37:35;;;;;;;55.20;21.30;;;-1.30;97.80;;;;;;5118846;28;20047;-72
2022/12/14 01:40:01;;;;;;;48.88;20.50;;;-1.40;97.80;;;;;;5100659;28;20054;-71
2022/12/14 01:42:26;;;;;;;49.38;19.42;;;-1.60;97.70;;;;;;5118538;28;20032;-73
2022/12/14 01:44:55;;;;;;;46.30;19.10;;;-1.70;97.80;;;;;;5118731;28;20337;-71
2022/12/14 01:47:48;;;;;;;54.38;20.48;;;-1.70;98.00;;;;;;5100990;28;20074;-72
2022/12/14 01:50:36;;;;;;;53.88;21.40;;;-1.70;98.20;;;;;;5110589;28;20073;-72
2022/12/14 01:53:06;;;;;;;52.50;23.13;;;-1.40;98.40;;;;;;5118780;28;20039;-72
2022/12/14 01:55:42;;;;;;;53.08;21.70;;;-1.30;98.30;;;;;;5100752;28;20324;-72
2022/12/14 01:58:21;;;;;;;51.33;20.33;;;-1.20;98.20;;;;;;5100317;28;20343;-72
2022/12/14 02:00:51;;;;;;;52.22;22.45;;;-1.30;97.60;;;;;;5118450;28;20052;-72
2022/12/14 02:03:19;;;;;;;47.15;18.98;;;-1.50;97.50;;;;;;5118416;28;20050;-72
2022/12/14 02:06:00;;;;;;;51.45;20.48;;;-1.60;97.70;;;;;;5118360;28;20048;-72
2022/12/14 02:08:26;;;;;;;52.67;20.80;;;-1.70;97.80;;;;;;5118652;28;20036;-72
2022/12/14 02:10:55;;;;;;;52.22;21.15;;;-1.60;98.00;;;;;;5100242;28;20126;-72
2022/12/14 02:13:35;;;;;;;53.70;22.48;;;-1.50;98.00;;;;;;5082989;28;20050;-72
2022/12/14 02:16:01;;;;;;;46.25;19.70;;;-1.40;98.10;;;;;;5100256;28;20072;-72
2022/12/14 02:18:29;;;;;;;54.65;20.95;;;-1.40;98.10;;;;;;5118343;28;20044;-72
2022/12/14 02:21:13;;;;;;;53.65;21.60;;;-1.50;97.80;;;;;;5100000;28;20333;-72
2022/12/14 02:24:11;;;;;;;53.30;21.92;;;-1.40;97.40;;;;;;5118108;28;20044;-72
2022/12/14 02:27:14;;;;;;;51.08;20.65;;;-1.70;97.40;;;;;;5112139;28;20085;-72
2022/12/14 02:29:55;;;;;;;51.88;20.02;;;-1.70;97.60;;;;;;5117875;28;20368;-72
2022/12/14 02:32:45;;;;;;;49.05;20.05;;;-1.80;97.60;;;;;;5100046;28;20044;-73
2022/12/14 02:35:41;;;;;;;53.05;21.40;;;-1.80;97.60;;;;;;5118041;28;20059;-72
2022/12/14 02:38:22;;;;;;;46.47;19.07;;;-1.80;97.50;;;;;;5118015;28;20115;-72
2022/12/14 02:40:54;;;;;;;45.92;19.83;;;-1.90;97.30;;;;;;5117646;28;20530;-72
2022/12/14 02:43:47;;;;;;;50.40;19.27;;;-2.00;97.10;;;;;;5099279;28;20043;-72
2022/12/14 02:46:51;;;;;;;50.28;21.77;;;-2.20;97.10;;;;;;5117440;28;20040;-72
2022/12/14 02:49:30;;;;;;;51.42;20.83;;;-2.40;97.30;;;;;;5117404;28;20032;-71
2022/12/14 02:52:09;;;;;;;49.80;20.67;;;-2.30;97.60;;;;;;5099444;28;20047;-72
2022/12/14 02:54:47;;;;;;;47.92;19.33;;;-2.20;97.70;;;;;;5117442;28;20047;-72
2022/12/14 02:57:24;;;;;;;53.22;21.42;;;-2.10;97.60;;;;;;5099682;28;20039;-72
2022/12/14 02:59:54;;;;;;;54.42;20.67;;;-2.10;97.40;;;;;;5117358;28;20043;-72
2022/12/14 03:02:20;;;;;;;50.17;20.00;;;-2.10;97.30;;;;;;5117033;28;20031;-72
2022/12/14 03:04:49;;;;;;;47.35;20.05;;;-2.30;97.20;;;;;;5117673;28;20432;-72
2022/12/14 03:07:37;;;;;;;51.08;19.50;;;-2.20;97.50;;;;;;5116900;28;20444;-72
2022/12/14 03:10:16;;;;;;;54.70;20.05;;;-2.20;97.50;;;;;;5117366;28;20039;-72
2022/12/14 03:12:45;;;;;;;49.15;20.70;;;-2.10;97.60;;;;;;5098547;28;20036;-72
2022/12/14 03:15:15;;;;;;;48.95;19.65;;;-2.20;97.30;;;;;;5116998;28;20040;-72
2022/12/14 03:17:43;;;;;;;48.72;20.08;;;-2.20;97.30;;;;;;5117035;28;20317;-72
2022/12/14 03:20:13;;;;;;;51.83;19.85;;;-2.10;97.30;;;;;;5098879;28;20058;-72
2022/12/14 03:22:49;;;;;;;54.38;21.85;;;-2.20;97.30;;;;;;5098966;28;20082;-72
2022/12/14 03:25:21;;;;;;;48.67;19.23;;;-2.20;97.40;;;;;;5099151;28;20031;-72
2022/12/14 03:27:57;;;;;;;46.00;20.13;;;-2.10;97.50;;;;;;5099152;28;20436;-72
2022/12/14 03:30:23;;;;;;;49.08;18.75;;;-2.10;97.30;;;;;;5117244;28;20044;-72
2022/12/14 03:32:53;;;;;;;46.28;17.85;;;-2.00;97.30;;;;;;5099075;28;20050;-72
2022/12/14 03:35:59;;;;;;;46.97;19.50;;;-2.10;97.20;;;;;;5117152;28;20115;-72
2022/12/14 03:38:38;;;;;;;49.45;19.90;;;-2.10;97.20;;;;;;5116145;28;20054;-72
2022/12/14 03:41:26;;;;;;;43.85;18.75;;;-2.10;97.20;;;;;;5116979;28;20332;-72
2022/12/14 03:44:04;;;;;;;49.42;19.50;;;-2.20;97.10;;;;;;5117113;28;20067;-72
2022/12/14 03:47:26;;;;;;;55.60;20.92;;;-2.30;97.10;;;;;;5116814;28;20381;-72
2022/12/14 03:50:05;;;;;;;45.00;19.23;;;-2.30;97.20;;;;;;5034272;28;20413;-72
2022/12/14 03:52:42;;;;;;;48.08;19.42;;;-2.40;97.10;;;;;;5018275;28;20100;-72
2022/12/14 03:55:32;;;;;;;43.60;17.77;;;-2.30;97.40;;;;;;5079206;28;20340;-72
2022/12/14 03:58:16;;;;;;;52.13;19.50;;;-2.20;97.40;;;;;;5098937;28;20131;-72
2022/12/14 04:00:52;;;;;;;47.58;19.58;;;-2.10;97.60;;;;;;5116567;28;20444;-72
2022/12/14 04:03:20;;;;;;;;;;;-1.90;97.70;;;;;;5117021;28;20048;-72
2022/12/14 04:05:58;;;;;;;52.10;19.77;;;-1.90;97.40;;;;;;5098652;28;19923;-72
2022/12/14 04:08:59;;;;;;;44.70;18.85;;;-2.00;97.00;;;;;;5116736;28;20039;-72
2022/12/14 04:20:24;;;;;;;44.03;17.98;;;-2.30;97.10;;;;;;5116365;28;20111;-72
2022/12/14 04:23:02;;;;;;;52.72;20.00;;;-2.30;97.10;;;;;;5117169;28;20043;-72
2022/12/14 04:31:16;;;;;;;49.60;19.58;;;-2.30;96.90;;;;;;5120352;28;20047;-72
2022/12/14 04:33:47;;;;;;;51.70;19.38;;;-2.30;96.90;;;;;;5102444;28;20032;-72
2022/12/14 04:36:21;;;;;;;51.60;20.45;;;-2.40;96.80;;;;;;5120082;28;20115;-72
2022/12/14 04:38:51;;;;;;;52.20;18.20;;;-2.40;96.90;;;;;;5120085;28;20040;-72
2022/12/14 04:41:22;;;;;;;45.70;19.60;;;-2.40;97.00;;;;;;5120712;28;20079;-72
2022/12/14 04:43:51;;;;;;;47.10;19.30;;;-2.40;97.00;;;;;;5102130;28;20040;-72
2022/12/14 04:46:23;;;;;;;46.70;19.05;;;-2.40;97.20;;;;;;5130619;27;20066;-73
2022/12/14 04:49:03;;;;;;;54.22;19.92;;;-2.40;96.90;;;;;;5121040;27;20367;-72
2022/12/14 04:51:43;;;;;;;49.60;19.23;;;-2.50;96.70;;;;;;5140341;27;20058;-72
2022/12/14 04:54:21;;;;;;;50.03;19.35;;;-2.60;96.80;;;;;;5140721;27;20081;-72
2022/12/14 04:57:16;;;;;;;53.10;19.23;;;-2.60;97.00;;;;;;5140410;27;20050;-72
2022/12/14 04:59:42;;;;;;;50.80;19.55;;;-2.60;97.00;;;;;;5108568;27;20079;-72
2022/12/14 05:02:39;;;;;;;51.80;19.80;;;-2.60;97.10;;;;;;5140211;27;20118;-72
2022/12/14 05:05:14;;;;;;;49.30;19.60;;;-2.60;97.10;;;;;;5140047;27;20078;-72
2022/12/14 05:07:58;;;;;;;47.87;19.13;;;-2.60;97.00;;;;;;5140177;27;20047;-72
2022/12/14 05:10:41;;;;;;;46.45;18.08;;;-2.70;96.90;;;;;;5140213;27;20439;-72
2022/12/14 05:13:14;;;;;;;51.65;19.88;;;-2.70;96.90;;;;;;5139773;27;20046;-73
2022/12/14 05:15:44;;;;;;;53.42;19.10;;;-2.70;96.90;;;;;;5121915;27;20054;-72
2022/12/14 05:18:10;;;;;;;43.50;18.00;;;-2.70;96.90;;;;;;5139948;27;20039;-72
2022/12/14 05:20:35;;;;;;;46.25;18.90;;;-2.70;97.10;;;;;;5121739;27;20058;-72
2022/12/14 05:23:01;;;;;;;50.35;19.05;;;-2.70;97.00;;;;;;5104805;27;20043;-72
2022/12/14 05:25:27;;;;;;;46.10;19.10;;;-2.60;97.00;;;;;;5139958;27;20046;-72
2022/12/14 05:27:52;;;;;;;52.80;18.83;;;-2.70;96.80;;;;;;5139616;27;20039;-72
2022/12/14 05:30:18;;;;;;;52.03;19.83;;;-2.70;96.80;;;;;;5121802;27;20043;-72
2022/12/14 05:32:44;;;;;;;51.05;19.25;;;-2.80;96.70;;;;;;5139570;27;20122;-72
2022/12/14 05:35:14;;;;;;;49.53;18.83;;;-2.80;97.00;;;;;;5138778;27;20035;-72
2022/12/14 05:37:41;;;;;;;52.03;19.90;;;-2.80;96.90;;;;;;5139820;27;20383;-72
2022/12/14 05:40:07;;;;;;;48.42;19.55;;;-2.70;97.00;;;;;;5121394;27;20122;-72
2022/12/14 05:42:33;;;;;;;52.13;19.10;;;-2.80;97.10;;;;;;5139342;27;20066;-72
2022/12/14 05:44:59;;;;;;;47.70;18.17;;;-2.80;96.90;;;;;;5139403;27;20097;-72
2022/12/14 05:47:25;;;;;;;44.13;17.98;;;-2.80;96.80;;;;;;5121431;27;20035;-72
2022/12/14 05:49:50;;;;;;;48.30;19.05;;;-2.80;96.80;;;;;;5121035;27;20115;-72
2022/12/14 05:52:16;;;;;;;49.85;18.25;;;-2.90;96.70;;;;;;5139420;27;20122;-72
2022/12/14 05:54:42;;;;;;;54.33;19.42;;;-3.00;96.60;;;;;;5121715;27;20422;-72
2022/12/14 05:57:08;;;;;;;47.40;19.40;;;-3.00;96.80;;;;;;5121180;27;20035;-72
2022/12/14 05:59:33;;;;;;;55.17;19.55;;;-2.90;96.90;;;;;;5121051;27;20438;-72
2022/12/14 06:01:59;;;;;;;49.70;18.38;;;-2.80;97.00;;;;;;5138946;27;20036;-72
2022/12/14 06:04:25;;;;;;;56.65;20.25;;;-2.70;97.10;;;;;;5117464;28;20228;-72
2022/12/14 06:06:51;;;;;;;53.83;19.13;;;-2.70;97.00;;;;;;5118542;28;20045;-72
2022/12/14 06:09:18;;;;;;;52.38;19.67;;;-2.80;96.70;;;;;;5117447;28;20043;-72
2022/12/14 06:11:45;;;;;;;54.72;18.95;;;-2.80;96.70;;;;;;5117060;28;20046;-72
2022/12/14 06:14:11;;;;;;;53.50;19.55;;;-2.90;96.60;;;;;;5118326;28;20085;-72
2022/12/14 06:16:42;;;;;;;53.58;19.10;;;-2.90;96.80;;;;;;5100335;28;20035;-72
2022/12/14 06:19:08;;;;;;;57.38;18.85;;;-2.90;96.80;;;;;;5117129;28;20369;-72
2022/12/14 06:21:37;;;;;;;54.75;20.15;;;-2.90;96.80;;;;;;5116984;28;20054;-72
2022/12/14 06:24:04;;;;;;;54.30;18.85;;;-2.80;97.00;;;;;;5128067;27;20031;-72
2022/12/14 06:26:31;;;;;;;49.70;19.70;;;-2.80;96.90;;;;;;5138871;27;20066;-72
2022/12/14 06:28:57;;;;;;;47.03;18.65;;;-2.90;96.80;;;;;;5138485;27;20031;-72
2022/12/14 06:31:29;;;;;;;49.55;17.77;;;-2.80;96.90;;;;;;5139197;27;20079;-72
2022/12/14 06:33:58;;;;;;;52.95;18.67;;;-2.90;96.80;;;;;;5138435;27;20086;-72
2022/12/14 06:36:26;;;;;;;53.85;18.13;;;-2.80;96.80;;;;;;5138624;27;20038;-72
2022/12/14 06:38:52;;;;;;;50.85;17.95;;;-2.90;96.70;;;;;;5137285;27;20038;-72
2022/12/14 06:41:19;;;;;;;50.97;19.65;;;-2.90;96.70;;;;;;5138375;27;20035;-73
2022/12/14 06:43:45;;;;;;;47.67;19.13;;;-2.90;96.80;;;;;;5137989;27;20068;-72
2022/12/14 06:46:13;;;;;;;47.13;17.98;;;-2.90;96.70;;;;;;5137787;27;20043;-73
2022/12/14 06:48:39;;;;;;;47.80;18.52;;;-3.00;96.70;;;;;;5136734;27;20106;-72
2022/12/14 06:51:06;;;;;;;43.38;17.42;;;-3.00;96.80;;;;;;5138300;27;20035;-72
2022/12/14 06:53:33;;;;;;;52.45;18.85;;;-2.90;96.80;;;;;;5120428;27;20408;-72
2022/12/14 06:56:13;;;;;;;50.60;19.80;;;-2.80;96.90;;;;;;5138177;27;20061;-71
2022/12/14 06:58:39;;;;;;;57.53;20.48;;;-2.70;97.00;;;;;;5137182;27;20047;-72
2022/12/14 07:01:07;;;;;;;48.35;18.60;;;-2.70;96.70;;;;;;5137831;27;20043;-72
2022/12/14 07:03:33;;;;;;;47.40;19.85;;;-2.70;96.60;;;;;;5138115;27;20034;-72
2022/12/14 07:06:00;;;;;;;51.47;18.65;;;-2.90;96.40;;;;;;5137647;27;20087;-71
2022/12/14 07:08:27;;;;;;;51.53;19.60;;;-3.10;96.40;;;;;;5119626;27;20404;-72
2022/12/14 07:10:53;;;;;;;56.28;20.65;;;-3.20;96.60;;;;;;5136709;27;20114;-72
2022/12/14 07:13:20;;;;;;;57.20;20.15;;;-3.10;96.70;;;;;;5137268;27;20117;-73
2022/12/14 07:15:53;;;;;;;55.85;21.13;;;-3.00;96.70;;;;;;5136739;27;20317;-72
2022/12/14 07:18:19;;;;;;;51.70;20.52;;;-3.00;96.70;;;;;;5137729;27;20035;-72
2022/12/14 07:20:54;;;;;;;50.83;19.77;;;-2.90;96.60;;;;;;5137776;27;20039;-72
2022/12/14 07:23:20;;;;;;;52.10;20.50;;;-2.90;96.70;;;;;;5136622;27;20039;-72
2022/12/14 07:25:46;;;;;;;54.03;20.52;;;-2.90;96.80;;;;;;5137561;27;20031;-72
2022/12/14 07:28:11;;;;;;;50.28;20.90;;;-2.90;96.50;;;;;;5137331;27;20031;-72
2022/12/14 07:30:37;;;;;;;53.50;20.80;;;-3.00;96.60;;;;;;5136714;27;20037;-72
2022/12/14 07:33:03;;;;;;;45.80;19.33;;;-3.00;96.60;;;;;;5136369;27;20427;-72
2022/12/14 07:35:28;;;;;;;53.17;19.75;;;-2.90;96.50;;;;;;5136481;27;20039;-72
2022/12/14 07:37:54;;;;;;;47.63;19.52;;;-2.90;96.70;;;;;;5136611;28;20434;-72
2022/12/14 07:40:20;;;;;;;57.67;21.95;;;-2.90;96.50;;;;;;5136154;28;20368;-72
2022/12/14 07:42:49;;;;;;;58.72;21.98;;;-3.00;96.30;;;;;;5137043;27;20424;-72
2022/12/14 07:45:15;;;;;;;52.88;21.30;;;-3.10;96.20;;;;;;5136406;28;20331;-72
2022/12/14 07:47:41;;;;;;;51.08;19.40;;;-3.20;96.20;;;;;;5137443;28;20042;-72
2022/12/14 07:50:07;;;;;;;59.80;20.00;;;-3.20;96.30;;;;;;5119174;28;20036;-72
2022/12/14 07:52:33;;;;;;;49.20;18.77;;;-3.30;96.30;;;;;;5136420;28;20050;-72
2022/12/14 07:54:59;;;;;;;52.08;19.67;;;-3.30;96.30;;;;;;5136243;28;20039;-72
2022/12/14 07:57:24;;;;;;;51.15;19.88;;;-3.30;96.60;;;;;;5137336;27;20057;-72
2022/12/14 07:59:50;;;;;;;44.60;18.67;;;-3.20;96.60;;;;;;5126658;27;20032;-72
2022/12/14 08:02:16;;;;;;;47.70;18.75;;;-3.10;96.40;;;;;;5120814;27;20085;-72
2022/12/14 08:04:42;;;;;;;53.10;20.30;;;-3.10;96.40;;;;;;5119782;28;20054;-72
2022/12/14 08:07:08;;;;;;;58.17;20.13;;;-3.20;96.20;;;;;;5120620;28;20035;-72
2022/12/14 08:09:33;;;;;;;50.58;20.33;;;-3.20;96.20;;;;;;5102914;28;20385;-83
2022/12/14 08:11:59;;;;;;;57.28;19.77;;;-3.30;96.20;;;;;;5102313;28;20084;-71
2022/12/14 08:14:25;;;;;;;55.10;20.33;;;-3.20;96.40;;;;;;5119471;28;20122;-69
2022/12/14 08:16:50;;;;;;;58.10;20.08;;;-3.20;96.40;;;;;;5085801;28;20083;-72
2022/12/14 08:19:17;;;;;;;54.30;19.77;;;-3.30;96.30;;;;;;5119505;28;20444;-67
2022/12/14 08:21:46;;;;;;;50.65;18.55;;;-3.30;96.30;;;;;;5120398;27;20039;-67
2022/12/14 08:24:13;;;;;;;60.80;20.90;;;-3.30;96.30;;;;;;5120167;28;20031;-69
2022/12/14 08:26:39;;;;;;;57.72;22.38;;;-3.30;96.40;;;;;;5120644;28;20028;-68
2022/12/14 08:29:05;;;;;;;58.33;22.40;;;-3.20;96.40;;;;;;5119494;28;20031;-68
2022/12/14 08:31:32;;;;;;;59.83;21.05;;;-3.30;96.40;;;;;;5120366;28;20136;-68
2022/12/14 08:33:59;;;;;;;52.35;20.67;;;-3.20;96.60;;;;;;5118995;28;20044;-68
2022/12/14 08:36:27;;;;;;;58.25;21.80;;;-3.20;96.40;;;;;;5120297;28;20039;-68
2022/12/14 08:38:58;;;;;;;49.90;20.70;;;-3.20;96.40;;;;;;5120003;28;20099;-67
2022/12/14 08:41:25;;;;;;;54.78;21.90;;;-3.30;96.30;;;;;;5119258;28;20383;-70
2022/12/14 08:43:52;;;;;;;54.13;20.67;;;-3.30;96.40;;;;;;5119789;28;20043;-70
2022/12/14 08:46:19;;;;;;;52.90;19.73;;;-3.30;96.50;;;;;;5101911;28;20036;-68
2022/12/14 08:48:45;;;;;;;56.25;21.10;;;-3.30;96.70;;;;;;5119090;28;20032;-68
2022/12/14 08:51:11;;;;;;;57.72;21.38;;;-3.30;96.80;;;;;;5119706;28;20042;-69
2022/12/14 08:53:37;;;;;;;59.03;20.75;;;-3.20;96.90;;;;;;5118738;28;20047;-69
2022/12/14 08:56:09;;;;;;;57.63;21.77;;;-3.10;97.00;;;;;;5118666;28;20040;-69
2022/12/14 08:58:35;;;;;;;59.85;21.70;;;-2.90;97.00;;;;;;5118908;28;20073;-69
2022/12/14 09:01:04;;;;;;;49.67;19.85;;;-2.80;96.90;;;;;;5118861;28;20040;-68
2022/12/14 09:03:30;;;;;;;56.03;20.70;;;-2.70;96.90;;;;;;5118430;28;20416;-68
2022/12/14 09:06:01;;;;;;;53.50;20.15;;;-2.70;96.90;;;;;;5139674;27;20447;-68
2022/12/14 09:08:26;;;;;;;46.47;19.80;;;-2.70;96.90;;;;;;5140234;27;20035;-68
2022/12/14 09:10:52;;;;;;;54.13;21.35;;;-2.70;96.90;;;;;;5139367;27;20515;-68
2022/12/14 09:13:18;;;;;;;52.50;19.98;;;-2.70;97.10;;;;;;5114578;27;20054;-69
2022/12/14 09:15:43;;;;;;;47.05;19.75;;;-2.50;97.00;;;;;;5138514;27;20452;-68
2022/12/14 09:18:09;;;;;;;55.45;21.13;;;-2.60;97.20;;;;;;5140146;27;20084;-67
2022/12/14 09:20:35;;;;;;;57.35;21.25;;;-2.70;97.10;;;;;;5121761;27;20403;-68
2022/12/14 09:23:01;;;;;;;54.03;19.95;;;-2.60;97.30;;;;;;5122176;27;20430;-68
2022/12/14 09:25:27;;;;;;;49.50;19.00;;;-2.50;97.40;;;;;;5121895;27;20078;-68
2022/12/14 09:27:53;;;;;;;48.40;18.40;;;-2.40;97.60;;;;;;5140068;27;20067;-68
2022/12/14 09:30:19;;;;;;;49.97;19.02;;;-2.20;97.80;;;;;;5121640;27;20110;-67
2022/12/14 09:32:46;;;;;;;53.70;19.52;;;-2.10;97.70;;;;;;5094683;28;20048;-68
2022/12/14 09:35:11;;;;;;;50.95;19.13;;;-2.00;97.70;;;;;;5116035;27;20419;-68
2022/12/14 09:37:37;;;;;;;44.75;18.13;;;-2.00;97.70;;;;;;5137090;27;20035;-68
2022/12/14 09:40:05;;;;;;;61.33;19.23;;;-1.90;97.60;;;;;;5118941;28;20035;-68
2022/12/14 09:42:36;;;;;;;51.70;18.75;;;-1.90;97.60;;;;;;5118193;28;20152;-70
2022/12/14 09:45:20;;;;;;;52.80;18.55;;;-1.90;97.70;;;;;;5118066;28;20043;-68
2022/12/14 09:48:34;;;;;;;50.17;17.88;;;-1.90;97.70;;;;;;5118693;28;20031;-68
2022/12/14 09:50:59;;;;;;;47.30;18.60;;;-1.80;97.70;;;;;;5036347;28;20063;-68
2022/12/14 09:53:26;;;;;;;51.70;19.15;;;-1.80;97.80;;;;;;5084191;28;20491;-67
2022/12/14 09:55:55;;;;;;;46.95;18.40;;;-1.70;97.90;;;;;;5100804;28;20044;-68
2022/12/14 09:58:23;;;;;;;47.03;17.30;;;-1.60;98.00;;;;;;5118895;28;20112;-67
2022/12/14 10:01:17;;;;;;;45.90;17.83;;;-1.60;97.90;;;;;;5083906;28;20122;-67
2022/12/14 10:04:02;;;;;;;43.00;16.40;;;-1.60;98.00;;;;;;5118434;28;20047;-68
2022/12/14 10:06:35;;;;;;;43.47;17.60;;;-1.40;98.20;;;;;;5118663;28;20075;-67
2022/12/14 10:09:36;;;;;;;46.42;17.98;;;-1.40;98.10;;;;;;5118387;28;20144;-67
2022/12/14 10:12:25;;;;;;;46.92;17.27;;;-1.20;98.20;;;;;;5118090;28;20088;-68
2022/12/14 10:15:20;;;;;;;49.25;17.85;;;-1.20;98.10;;;;;;5100153;28;20529;-67
2022/12/14 10:18:08;;;;;;;42.88;17.25;;;-1.00;98.30;;;;;;5118421;28;20043;-69
2022/12/14 10:20:52;;;;;;;47.65;18.05;;;-0.70;98.40;;;;;;5112182;27;20035;-71
2022/12/14 10:23:22;;;;;;;47.50;18.52;;;-0.40;98.20;;;;;;5138669;27;20121;-69
2022/12/14 10:25:51;;;;;;;45.05;18.05;;;-0.30;98.00;;;;;;5126446;27;20042;-70
2022/12/14 10:28:19;;;;;;;45.22;16.35;;;0.00;97.70;;;;;;5126810;27;20031;-68
2022/12/14 10:30:47;;;;;;;41.00;16.75;;;0.20;97.40;;;;;;5132767;27;20043;-70
2022/12/14 10:33:21;;;;;;;38.70;15.40;;;0.40;97.30;;;;;;5119327;27;20118;-69
2022/12/14 10:35:56;;;;;;;42.00;16.23;;;0.50;97.10;;;;;;5138415;27;20047;-68
2022/12/14 10:38:37;;;;;;;38.72;15.13;;;0.60;97.30;;;;;;5138456;27;20086;-69
2022/12/14 10:41:17;;;;;;;39.03;15.25;;;0.70;97.30;;;;;;5120196;27;20123;-68
2022/12/14 10:43:54;;;;;;;40.47;15.38;;;0.80;97.10;;;;;;5119626;27;20035;-69
2022/12/14 10:46:54;;;;;;;41.33;14.10;;;1.00;97.10;;;;;;5138171;27;20043;-68
2022/12/14 10:49:28;;;;;;;32.65;14.45;;;1.20;97.00;;;;;;5131068;27;20115;-69
2022/12/14 10:51:56;;;;;;;39.17;14.95;;;1.20;96.60;;;;;;5102832;27;20073;-69
2022/12/14 10:54:43;;;;;;;35.67;14.18;;;1.30;96.60;;;;;;5138023;27;20049;-69
2022/12/14 10:57:15;;;;;;;36.60;15.18;;;1.50;96.50;;;;;;5138158;27;20043;-68
2022/12/14 10:59:42;;;;;;;35.72;13.95;;;1.40;96.40;;;;;;5119991;27;20039;-67
2022/12/14 11:02:15;;;;;;;34.13;14.25;;;1.60;96.40;;;;;;5119733;27;20127;-67
2022/12/14 11:04:50;;;;;;;36.90;14.95;;;1.60;96.40;;;;;;5119657;27;20466;-69
2022/12/14 11:07:19;;;;;;;35.53;15.20;;;1.60;96.40;;;;;;5138030;27;20035;-73
2022/12/14 11:09:45;;;;;;;36.13;14.60;;;1.60;96.50;;;;;;5137901;27;20416;-69
2022/12/14 11:12:25;;;;;;;42.28;15.35;;;1.60;96.70;;;;;;5137347;27;20046;-67
2022/12/14 11:14:57;;;;;;;33.55;14.18;;;1.70;96.60;;;;;;5137747;27;20076;-67
2022/12/14 11:17:41;;;;;;;39.50;15.30;;;1.70;96.50;;;;;;5119469;27;20050;-69
2022/12/14 11:20:26;;;;;;;38.65;14.77;;;1.90;96.70;;;;;;5137733;27;20078;-70
2022/12/14 11:23:03;;;;;;;36.97;15.43;;;2.10;96.50;;;;;;5119403;27;20453;-70
2022/12/14 11:25:44;;;;;;;35.60;14.75;;;2.20;96.40;;;;;;5119397;27;20047;-70
2022/12/14 11:28:29;;;;;;;39.55;15.73;;;2.30;96.20;;;;;;5119302;27;20054;-69
2022/12/14 11:31:03;;;;;;;36.67;16.17;;;2.60;96.00;;;;;;5137661;27;20047;-69
2022/12/14 11:33:46;;;;;;;36.10;15.50;;;2.80;96.00;;;;;;5137076;27;20039;-68
2022/12/14 11:36:36;;;;;;;35.17;14.73;;;3.20;95.80;;;;;;5137364;27;20047;-70
2022/12/14 11:39:11;;;;;;;34.22;14.45;;;3.50;95.80;;;;;;5137514;28;20074;-69
2022/12/14 11:41:41;;;;;;;40.42;17.20;;;3.90;95.70;;;;;;5137319;28;20052;-68
2022/12/14 11:44:15;;;;;;;35.67;15.23;;;4.10;95.20;;;;;;5136952;28;20104;-68
2022/12/14 11:47:07;;;;;;;36.75;15.20;;;4.00;95.00;;;;;;5119151;28;20041;-68
2022/12/14 11:49:34;;;;;;;30.95;14.05;;;3.80;94.80;;;;;;5137430;28;20031;-70
2022/12/14 11:52:20;;;;;;;35.42;14.88;;;3.40;94.70;;;;;;5137358;28;20062;-68
2022/12/14 11:54:51;;;;;;;33.83;14.37;;;3.30;95.20;;;;;;5119598;28;20043;-69
2022/12/14 11:57:39;;;;;;;34.13;15.43;;;3.30;95.20;;;;;;5119765;28;20460;-68
2022/12/14 12:00:27;;;;;;;32.83;13.68;;;2.80;95.20;;;;;;5137367;28;20031;-68
2022/12/14 12:03:34;;;;;;;30.05;12.85;;;2.70;95.10;;;;;;5136980;28;20414;-68
2022/12/14 12:06:04;;;;;;;;;;;3.10;95.50;;;;;;5120043;28;20383;-68
2022/12/14 12:08:34;;;;;;;30.83;12.85;;;4.00;95.00;;;;;;5137220;28;19922;-68
2022/12/14 12:11:04;;;;;;;27.50;12.25;;;4.70;94.40;;;;;;5137355;28;20035;-69
2022/12/14 12:13:36;;;;;;;30.17;13.60;;;5.40;94.80;;;;;;5118943;28;20046;-68
2022/12/14 12:16:22;;;;;;;29.75;13.25;;;5.90;94.30;;;;;;5137453;28;20323;-68
2022/12/14 12:19:01;;;;;;;28.30;12.13;;;6.10;93.40;;;;;;5137197;28;20039;-68
2022/12/14 12:21:29;;;;;;;28.45;12.68;;;5.80;93.80;;;;;;5136848;28;20043;-68
2022/12/14 12:24:19;;;;;;;31.90;13.80;;;5.50;94.10;;;;;;5118854;28;20043;-69
2022/12/14 12:26:57;;;;;;;25.17;11.75;;;5.40;94.20;;;;;;5137216;28;20043;-69
2022/12/14 12:29:25;;;;;;;29.08;13.10;;;5.20;94.00;;;;;;5136862;28;20419;-68
2022/12/14 12:32:00;;;;;;;31.05;12.38;;;5.40;94.20;;;;;;5119066;28;20100;-69
2022/12/14 12:34:54;;;;;;;26.45;12.70;;;5.70;94.10;;;;;;5119848;28;20032;-69
2022/12/14 12:37:44;;;;;;;28.15;12.60;;;5.70;93.80;;;;;;5136875;28;20455;-66
2022/12/14 12:40:34;;;;;;;29.83;13.02;;;5.70;93.60;;;;;;5137015;28;20037;-67
2022/12/14 12:43:11;;;;;;;28.92;12.52;;;6.20;93.90;;;;;;5136329;28;20363;-68
2022/12/14 12:45:41;;;;;;;25.75;12.02;;;6.70;92.80;;;;;;5138810;27;20047;-68
2022/12/14 12:48:29;;;;;;;25.20;12.02;;;6.90;92.80;;;;;;5140802;27;20039;-66
2022/12/14 12:51:09;;;;;;;26.08;11.63;;;7.80;92.90;;;;;;5140697;27;20043;-67
2022/12/14 12:53:42;;;;;;;26.83;12.25;;;8.90;92.10;;;;;;5140839;27;20038;-70
2022/12/14 12:56:31;;;;;;;25.00;12.88;;;9.70;91.60;;;;;;5122190;27;20126;-67
2022/12/14 12:58:58;;;;;;;23.55;12.05;;;10.20;90.90;;;;;;5140045;27;20046;-66
2022/12/14 13:01:34;;;;;;;22.10;11.88;;;10.80;91.70;;;;;;5122011;27;20053;-74
2022/12/14 13:04:04;;;;;;;21.27;11.50;;;11.10;91.40;;;;;;5140577;27;20059;-71
2022/12/14 13:06:39;;;;;;;28.83;13.95;;;11.10;91.70;;;;;;5140212;27;20435;-68
2022/12/14 13:09:34;;;;;;;22.00;12.35;;;10.50;90.90;;;;;;5140111;27;20442;-69
2022/12/14 13:12:01;;;;;;;24.30;12.93;;;9.40;90.90;;;;;;5139942;27;20057;-71